Time;durP1;ratioP1;P1;durP2;ratioP2;P2;SDS_P1;SDS_P2;PMS_P1;PMS_P2;Temp;Humidity;BMP_temperature;BMP_pressure;BME280_temperature;BME280_humidity;BME280_pressure;Samples;Min_cycle;Max_cycle;Signal;HPM_P1;HPM_P2
2021/12/14 00:02:10;;;;;;;17.00;7.18;;;9.00;99.90;;;;;;5040672;28;20041;-68
2021/12/14 00:04:37;;;;;;;15.38;7.38;;;9.00;99.90;;;;;;5036996;28;20030;-70
2021/12/14 00:07:06;;;;;;;15.10;6.63;;;9.00;99.90;;;;;;5039940;28;20032;-68
2021/12/14 00:09:36;;;;;;;16.95;7.35;;;9.00;99.90;;;;;;5036376;28;20038;-68
2021/12/14 00:12:57;;;;;;;16.45;6.93;;;9.00;99.90;;;;;;5033167;28;20036;-67
2021/12/14 00:15:24;;;;;;;16.45;6.93;;;9.10;99.90;;;;;;5036320;28;20462;-66
2021/12/14 00:17:57;;;;;;;18.83;8.18;;;9.00;99.90;;;;;;5036971;28;20123;-68
2021/12/14 00:20:25;;;;;;;17.92;7.70;;;9.00;99.90;;;;;;5038275;28;20040;-68
2021/12/14 00:25:25;;;;;;;16.83;6.53;;;9.10;99.90;;;;;;5039125;28;20033;-70
2021/12/14 00:27:51;;;;;;;17.65;7.07;;;9.00;99.90;;;;;;5036668;28;20040;-69
2021/12/14 00:30:17;;;;;;;16.10;7.20;;;9.00;99.90;;;;;;5038417;28;20179;-69
2021/12/14 00:32:43;;;;;;;15.90;7.20;;;9.10;99.90;;;;;;5039956;28;20123;-68
2021/12/14 00:35:13;;;;;;;15.48;7.28;;;9.00;99.90;;;;;;5038020;28;20029;-68
2021/12/14 00:37:43;;;;;;;18.95;6.85;;;9.00;99.90;;;;;;5042691;28;20051;-68
2021/12/14 00:40:28;;;;;;;20.83;6.65;;;9.00;99.90;;;;;;5040567;28;20029;-69
2021/12/14 00:42:55;;;;;;;17.05;7.28;;;9.10;99.90;;;;;;5043154;28;20120;-68
2021/12/14 00:45:23;;;;;;;16.30;6.90;;;9.00;99.90;;;;;;5040750;28;20039;-68
2021/12/14 00:47:49;;;;;;;14.95;6.65;;;9.00;99.90;;;;;;5042508;28;20627;-66
2021/12/14 00:50:18;;;;;;;13.80;7.28;;;9.10;99.90;;;;;;5041748;28;20116;-68
2021/12/14 00:52:44;;;;;;;14.30;7.10;;;9.10;99.90;;;;;;5040220;28;20029;-70
2021/12/14 00:55:16;;;;;;;14.05;6.63;;;9.00;99.90;;;;;;5041291;28;20033;-68
2021/12/14 00:57:42;;;;;;;14.32;6.78;;;9.00;99.90;;;;;;5041568;28;20039;-68
2021/12/14 01:00:14;;;;;;;16.10;6.85;;;9.10;99.90;;;;;;5039496;28;20041;-68
2021/12/14 01:02:41;;;;;;;14.77;7.18;;;9.00;99.90;;;;;;5041802;28;20045;-68
2021/12/14 01:05:19;;;;;;;14.48;7.05;;;9.00;99.90;;;;;;5042412;28;20060;-67
2021/12/14 01:07:45;;;;;;;14.82;7.50;;;9.00;99.90;;;;;;5040623;28;20034;-69
2021/12/14 01:10:33;;;;;;;14.38;7.32;;;9.00;99.90;;;;;;5041543;28;20044;-67
2021/12/14 01:13:05;;;;;;;13.50;6.50;;;9.00;99.90;;;;;;5036418;28;20033;-68
2021/12/14 01:26:58;;;;;;;17.90;8.70;;;8.90;99.90;;;;;;5035133;28;20087;-68
2021/12/14 01:29:24;;;;;;;16.15;7.45;;;9.00;99.90;;;;;;5043220;28;20396;-68
2021/12/14 01:31:51;;;;;;;18.13;8.15;;;9.00;99.90;;;;;;5039356;28;20113;-68
2021/12/14 01:34:21;;;;;;;15.27;7.95;;;8.90;99.90;;;;;;5042158;28;20034;-68
2021/12/14 01:36:52;;;;;;;17.05;8.18;;;8.90;99.90;;;;;;5039473;28;20025;-67
2021/12/14 01:42:08;;;;;;;15.00;7.85;;;8.90;99.90;;;;;;5035011;28;20052;-67
2021/12/14 01:44:45;;;;;;;17.00;7.65;;;8.90;99.90;;;;;;5037156;28;20025;-70
2021/12/14 01:47:20;;;;;;;17.10;8.20;;;9.00;99.90;;;;;;5038154;28;20037;-69
2021/12/14 01:49:47;;;;;;;14.98;8.00;;;8.90;99.90;;;;;;5041471;28;20033;-68
2021/12/14 01:52:19;;;;;;;17.55;8.25;;;8.90;99.90;;;;;;5040227;28;20090;-65
2021/12/14 01:54:52;;;;;;;16.70;7.88;;;9.00;99.90;;;;;;5037576;28;20072;-69
2021/12/14 01:57:22;;;;;;;17.65;7.93;;;9.00;99.90;;;;;;5041696;28;20032;-69
2021/12/14 01:59:54;;;;;;;13.90;7.25;;;9.00;99.90;;;;;;5039365;28;20125;-66
2021/12/14 02:02:32;;;;;;;17.85;8.75;;;8.90;99.90;;;;;;5041744;28;20045;-68
2021/12/14 02:05:05;;;;;;;16.67;8.52;;;8.90;99.90;;;;;;5035611;28;20036;-69
2021/12/14 02:07:32;;;;;;;20.52;9.10;;;8.80;99.90;;;;;;5042078;28;20036;-69
2021/12/14 02:10:10;;;;;;;20.98;9.10;;;8.90;99.90;;;;;;5037322;28;20041;-66
2021/12/14 02:12:39;;;;;;;16.08;7.85;;;8.90;99.90;;;;;;5041059;28;20489;-68
2021/12/14 02:15:16;;;;;;;16.05;7.30;;;8.90;99.90;;;;;;5039823;28;20033;-71
2021/12/14 02:17:42;;;;;;;18.73;9.07;;;8.80;99.90;;;;;;5040033;28;20032;-68
2021/12/14 02:20:11;;;;;;;18.20;9.10;;;8.80;99.90;;;;;;5038870;28;20041;-69
2021/12/14 02:22:36;;;;;;;15.43;8.10;;;8.90;99.90;;;;;;5041628;28;20048;-67
2021/12/14 02:25:05;;;;;;;17.27;9.05;;;8.90;99.90;;;;;;5039206;28;20033;-69
2021/12/14 02:27:40;;;;;;;17.33;9.60;;;8.90;99.90;;;;;;5041780;28;20029;-66
2021/12/14 02:30:13;;;;;;;19.75;8.52;;;8.90;99.90;;;;;;5039388;28;20073;-67
2021/12/14 02:32:39;;;;;;;22.73;10.85;;;8.90;99.90;;;;;;5038846;28;20440;-69
2021/12/14 02:35:08;;;;;;;18.60;9.95;;;8.80;99.90;;;;;;5037753;28;20068;-68
2021/12/14 02:37:42;;;;;;;21.33;9.85;;;8.90;99.90;;;;;;5040612;28;20409;-69
2021/12/14 02:40:19;;;;;;;18.23;9.35;;;8.80;99.90;;;;;;5038530;28;20037;-66
2021/12/14 02:42:48;;;;;;;18.75;9.20;;;8.90;99.90;;;;;;5041244;28;20051;-71
2021/12/14 02:45:14;;;;;;;20.20;9.73;;;8.90;99.90;;;;;;5039321;28;20029;-67
2021/12/14 02:47:40;;;;;;;18.35;9.43;;;8.90;99.90;;;;;;5038644;28;20068;-70
2021/12/14 02:50:07;;;;;;;19.33;9.30;;;8.90;99.90;;;;;;5039000;28;20532;-67
2021/12/14 02:52:36;;;;;;;20.75;10.85;;;8.90;99.90;;;;;;5039501;28;20429;-69
2021/12/14 02:55:13;;;;;;;17.83;9.30;;;8.90;99.90;;;;;;5038687;28;20132;-70
2021/12/14 02:57:43;;;;;;;23.40;10.57;;;8.90;99.90;;;;;;5037979;28;20033;-68
2021/12/14 03:00:36;;;;;;;18.33;9.50;;;8.90;99.90;;;;;;5037341;28;20065;-68
2021/12/14 03:03:04;;;;;;;18.58;9.07;;;8.90;99.90;;;;;;5025208;28;20118;-69
2021/12/14 03:05:35;;;;;;;21.42;10.32;;;8.80;99.90;;;;;;5036889;28;20029;-65
2021/12/14 03:08:16;;;;;;;20.88;9.95;;;8.80;99.90;;;;;;5039416;28;20052;-68
2021/12/14 03:13:18;;;;;;;19.95;9.80;;;8.80;99.90;;;;;;5037822;28;20072;-68
2021/12/14 03:15:48;;;;;;;19.75;10.23;;;8.90;99.90;;;;;;5036679;28;20100;-69
2021/12/14 03:18:21;;;;;;;18.42;8.88;;;8.90;99.90;;;;;;5037725;28;20032;-67
2021/12/14 03:20:54;;;;;;;18.17;8.85;;;8.90;99.90;;;;;;5040814;28;20029;-69
2021/12/14 03:23:26;;;;;;;17.30;9.25;;;8.80;99.90;;;;;;5033740;28;20033;-69
2021/12/14 03:25:54;;;;;;;22.33;9.45;;;8.80;99.90;;;;;;5033220;28;20102;-68
2021/12/14 03:28:22;;;;;;;17.48;8.75;;;8.80;99.90;;;;;;5040642;28;20056;-70
2021/12/14 03:31:00;;;;;;;18.98;9.40;;;8.80;99.90;;;;;;5032773;28;20041;-65
2021/12/14 03:33:32;;;;;;;16.60;8.13;;;8.80;99.90;;;;;;5033013;28;20033;-70
2021/12/14 03:36:03;;;;;;;19.35;9.35;;;8.80;99.90;;;;;;5038725;28;20036;-69
2021/12/14 03:38:50;;;;;;;16.80;9.02;;;8.80;99.90;;;;;;5038976;28;20037;-68
2021/12/14 03:41:26;;;;;;;15.38;8.38;;;8.90;99.90;;;;;;5032623;28;20124;-68
2021/12/14 03:43:59;;;;;;;15.05;7.90;;;8.80;99.90;;;;;;5034067;28;20087;-68
2021/12/14 03:46:33;;;;;;;17.00;8.80;;;8.80;99.90;;;;;;5039500;28;20037;-70
2021/12/14 03:49:00;;;;;;;16.60;8.95;;;8.80;99.90;;;;;;5036352;28;20228;-69
2021/12/14 03:51:27;;;;;;;17.55;9.20;;;8.90;99.90;;;;;;5040280;28;20037;-68
2021/12/14 03:53:55;;;;;;;15.43;8.13;;;8.80;99.90;;;;;;5035936;28;20050;-69
2021/12/14 03:56:21;;;;;;;18.35;9.52;;;8.70;99.90;;;;;;5039145;28;20061;-68
2021/12/14 03:58:48;;;;;;;16.85;8.30;;;8.80;99.90;;;;;;5036319;28;20061;-65
2021/12/14 04:01:21;;;;;;;17.27;9.07;;;8.80;99.90;;;;;;5040108;28;20048;-68
2021/12/14 04:03:52;;;;;;;15.65;8.13;;;8.70;99.90;;;;;;5036691;28;20037;-67
2021/12/14 04:06:18;;;;;;;16.90;8.23;;;8.70;99.90;;;;;;5033505;28;20033;-67
2021/12/14 04:08:45;;;;;;;14.88;8.23;;;8.70;99.90;;;;;;5031013;28;20144;-67
2021/12/14 04:11:13;;;;;;;18.23;8.23;;;8.70;99.90;;;;;;5039432;28;20037;-68
2021/12/14 04:13:45;;;;;;;16.55;8.48;;;8.70;99.90;;;;;;5037513;28;20144;-68
2021/12/14 04:16:15;;;;;;;15.55;8.30;;;8.60;99.90;;;;;;5039543;28;20500;-71
2021/12/14 04:18:40;;;;;;;19.10;8.52;;;8.60;99.90;;;;;;5037638;28;20029;-68
2021/12/14 04:21:06;;;;;;;17.23;8.18;;;8.50;99.90;;;;;;5037882;28;20036;-67
2021/12/14 04:23:40;;;;;;;17.40;8.07;;;8.50;99.90;;;;;;5038596;28;20029;-70
2021/12/14 04:26:07;;;;;;;15.80;7.82;;;8.50;99.90;;;;;;5026092;28;20060;-68
2021/12/14 04:28:38;;;;;;;15.82;7.88;;;8.50;99.90;;;;;;5031809;28;20109;-68
2021/12/14 04:31:04;;;;;;;17.60;8.75;;;8.40;99.90;;;;;;5035727;28;20057;-69
2021/12/14 04:33:36;;;;;;;16.73;7.90;;;8.40;99.90;;;;;;5036130;28;20471;-66
2021/12/14 04:36:07;;;;;;;14.90;7.85;;;8.40;99.90;;;;;;5034810;28;20034;-68
2021/12/14 04:38:41;;;;;;;19.45;8.20;;;8.40;99.90;;;;;;5038155;28;20024;-68
2021/12/14 04:54:22;;;;;;;15.23;7.18;;;8.50;99.90;;;;;;5037370;28;20037;-68
2021/12/14 04:56:48;;;;;;;16.15;6.90;;;8.50;99.90;;;;;;5040233;28;20053;-63
2021/12/14 04:59:20;;;;;;;13.90;7.75;;;8.50;99.90;;;;;;5036571;28;20072;-70
2021/12/14 05:01:47;;;;;;;15.48;8.05;;;8.50;99.90;;;;;;5035658;28;20636;-69
2021/12/14 05:04:18;;;;;;;17.23;8.25;;;8.50;99.90;;;;;;5032620;28;20048;-69
2021/12/14 05:06:51;;;;;;;13.05;6.95;;;8.50;99.90;;;;;;5032763;28;20037;-68
2021/12/14 05:09:27;;;;;;;16.13;7.70;;;8.50;99.90;;;;;;5033424;28;20515;-69
2021/12/14 05:12:05;;;;;;;12.18;6.25;;;8.50;99.90;;;;;;5038838;28;20055;-68
2021/12/14 05:14:33;;;;;;;14.75;7.20;;;8.50;99.90;;;;;;5039362;28;20025;-66
2021/12/14 05:17:02;;;;;;;14.68;7.05;;;8.50;99.90;;;;;;5037747;28;20587;-68
2021/12/14 05:19:31;;;;;;;17.58;7.15;;;8.50;99.90;;;;;;5039308;28;20074;-68
2021/12/14 05:22:28;;;;;;;13.48;6.40;;;8.50;99.90;;;;;;5042322;28;20051;-68
2021/12/14 05:24:57;;;;;;;14.63;6.93;;;8.50;99.90;;;;;;5029390;28;20041;-68
2021/12/14 05:27:29;;;;;;;15.30;6.57;;;8.50;99.90;;;;;;5042673;28;20476;-68
2021/12/14 05:30:08;;;;;;;15.55;7.15;;;8.50;99.90;;;;;;5039943;28;20049;-68
2021/12/14 05:32:34;;;;;;;15.02;6.65;;;8.50;99.90;;;;;;5034013;28;20121;-67
2021/12/14 05:35:00;;;;;;;14.18;6.13;;;8.50;99.90;;;;;;5032406;28;20041;-70
2021/12/14 05:37:30;;;;;;;11.95;5.85;;;8.50;99.90;;;;;;5033266;28;20041;-67
2021/12/14 05:40:00;;;;;;;13.48;6.95;;;8.40;99.90;;;;;;5030704;28;20396;-68
2021/12/14 05:45:16;;;;;;;15.73;6.65;;;8.50;99.90;;;;;;5031598;28;20138;-68
2021/12/14 05:47:45;;;;;;;13.27;6.53;;;8.50;99.90;;;;;;5032389;28;20033;-68
2021/12/14 05:50:18;;;;;;;11.90;5.90;;;8.50;99.90;;;;;;5029194;28;20041;-69
2021/12/14 05:52:44;;;;;;;12.68;6.00;;;8.50;99.90;;;;;;5036416;28;20029;-67
2021/12/14 05:55:12;;;;;;;12.02;5.10;;;8.50;99.90;;;;;;5037884;28;20041;-70
2021/12/14 05:57:38;;;;;;;11.85;5.95;;;8.50;99.90;;;;;;5036702;28;20506;-67
2021/12/14 06:00:08;;;;;;;11.38;6.00;;;8.60;99.90;;;;;;5033501;28;20041;-67
2021/12/14 06:02:37;;;;;;;10.80;5.70;;;8.60;99.90;;;;;;5028162;28;20038;-66
2021/12/14 06:05:03;;;;;;;12.18;6.00;;;8.60;99.90;;;;;;5029671;28;20303;-68
2021/12/14 06:07:29;;;;;;;11.95;5.85;;;8.60;99.90;;;;;;5027970;28;20041;-68
2021/12/14 06:09:55;;;;;;;10.85;5.80;;;8.60;99.90;;;;;;5025651;28;20040;-68
2021/12/14 06:12:24;;;;;;;14.93;7.03;;;8.60;99.90;;;;;;5027348;28;20029;-69
2021/12/14 06:14:53;;;;;;;14.00;6.47;;;8.60;99.90;;;;;;5030304;28;20124;-69
2021/12/14 06:17:26;;;;;;;11.75;5.82;;;8.50;99.90;;;;;;5027395;28;20401;-66
2021/12/14 06:19:56;;;;;;;14.57;6.25;;;8.50;99.90;;;;;;5028138;28;20029;-68
2021/12/14 06:22:24;;;;;;;13.80;7.07;;;8.50;99.90;;;;;;5031821;28;20493;-70
2021/12/14 06:25:02;;;;;;;12.77;6.53;;;8.50;99.90;;;;;;5029327;28;20112;-67
2021/12/14 06:27:30;;;;;;;16.92;6.82;;;8.50;99.90;;;;;;5027677;28;20030;-68
2021/12/14 06:30:20;;;;;;;12.02;6.22;;;8.50;99.90;;;;;;5030087;28;20500;-68
2021/12/14 06:32:49;;;;;;;;;;;8.50;99.90;;;;;;5032157;28;20572;-69
2021/12/14 06:35:21;;;;;;;12.40;6.57;;;8.50;99.90;;;;;;5026559;28;19923;-68
2021/12/14 06:38:26;;;;;;;13.05;6.65;;;8.50;99.90;;;;;;5027317;28;20128;-68
2021/12/14 06:41:04;;;;;;;12.35;6.18;;;8.50;99.90;;;;;;5027822;28;20045;-68
2021/12/14 06:43:34;;;;;;;10.18;5.82;;;8.60;99.90;;;;;;5030544;28;20041;-67
2021/12/14 06:46:08;;;;;;;12.07;5.90;;;8.60;99.90;;;;;;5028930;28;20100;-70
2021/12/14 06:48:44;;;;;;;13.32;6.28;;;8.60;99.90;;;;;;5028052;28;20413;-69
2021/12/14 06:51:44;;;;;;;23.17;7.70;;;8.60;99.90;;;;;;5026395;28;20451;-68
2021/12/14 06:54:22;;;;;;;15.35;6.80;;;8.50;99.90;;;;;;5020846;28;20064;-67
2021/12/14 06:56:52;;;;;;;14.27;6.47;;;8.50;99.90;;;;;;5029286;28;20546;-67
2021/12/14 06:59:20;;;;;;;14.07;7.33;;;8.50;99.90;;;;;;5000068;28;1060854;-67
2021/12/14 07:02:01;;;;;;;12.27;6.75;;;8.50;99.90;;;;;;5036639;28;20045;-68
2021/12/14 07:04:30;;;;;;;16.25;6.25;;;8.50;99.90;;;;;;5027589;28;20091;-69
2021/12/14 07:07:01;;;;;;;13.70;6.97;;;8.50;99.90;;;;;;5030099;28;20045;-68
2021/12/14 07:09:35;;;;;;;14.07;6.50;;;8.40;99.90;;;;;;5032655;28;20116;-68
2021/12/14 07:12:14;;;;;;;17.33;6.35;;;8.60;99.90;;;;;;5031473;28;20044;-67
2021/12/14 07:15:02;;;;;;;15.03;7.33;;;8.50;99.90;;;;;;5025403;28;20033;-67
2021/12/14 07:17:32;;;;;;;15.18;7.10;;;8.50;99.90;;;;;;5029154;28;20303;-68
2021/12/14 07:20:15;;;;;;;13.38;6.90;;;8.60;99.90;;;;;;5028658;28;20037;-70
2021/12/14 07:22:53;;;;;;;13.98;6.78;;;8.50;99.90;;;;;;5023035;28;20034;-68
2021/12/14 07:25:31;;;;;;;13.02;6.70;;;8.50;99.90;;;;;;5031193;28;20120;-70
2021/12/14 07:28:00;;;;;;;12.27;6.57;;;8.50;99.90;;;;;;5024428;28;20029;-68
2021/12/14 07:30:33;;;;;;;13.38;6.82;;;8.60;99.90;;;;;;5032505;28;20033;-68
2021/12/14 07:33:19;;;;;;;12.82;6.32;;;8.50;99.90;;;;;;5025917;28;20033;-67
2021/12/14 07:35:56;;;;;;;13.93;7.03;;;8.50;99.90;;;;;;5030462;28;20045;-69
2021/12/14 07:38:44;;;;;;;13.65;6.47;;;8.50;99.90;;;;;;5028894;28;20044;-68
2021/12/14 07:41:17;;;;;;;15.02;7.50;;;8.50;99.90;;;;;;5024855;28;20133;-72
2021/12/14 07:44:12;;;;;;;14.73;6.65;;;8.40;99.90;;;;;;5028666;28;20064;-68
2021/12/14 07:46:53;;;;;;;17.00;7.78;;;8.40;99.90;;;;;;5018811;28;20041;-69
2021/12/14 07:49:29;;;;;;;13.60;6.93;;;8.40;99.90;;;;;;5030170;28;20680;-68
2021/12/14 07:51:59;;;;;;;16.13;7.93;;;8.40;99.90;;;;;;5026120;28;20034;-67
2021/12/14 07:54:31;;;;;;;17.00;7.57;;;8.40;99.90;;;;;;5030589;28;20475;-70
2021/12/14 07:57:05;;;;;;;14.55;6.95;;;8.40;99.90;;;;;;5026492;28;20056;-69
2021/12/14 07:59:37;;;;;;;18.27;8.15;;;8.50;99.90;;;;;;5034400;28;20045;-67
2021/12/14 08:02:14;;;;;;;12.75;6.97;;;8.50;99.90;;;;;;5025916;28;20034;-68
2021/12/14 08:04:43;;;;;;;15.27;6.90;;;8.50;99.90;;;;;;5028222;28;20037;-67
2021/12/14 08:07:16;;;;;;;15.45;6.85;;;8.60;99.90;;;;;;5027827;28;20063;-69
2021/12/14 08:09:50;;;;;;;16.58;7.55;;;8.60;99.90;;;;;;5032929;28;20029;-69
2021/12/14 08:12:34;;;;;;;14.43;7.45;;;8.60;99.90;;;;;;5027832;28;20128;-65
2021/12/14 08:15:12;;;;;;;14.38;6.93;;;8.60;99.90;;;;;;5029720;28;20049;-68
2021/12/14 08:17:38;;;;;;;16.33;7.75;;;8.70;99.90;;;;;;5021451;28;20049;-68
2021/12/14 08:20:14;;;;;;;15.43;7.55;;;8.70;99.90;;;;;;5026280;28;20033;-69
2021/12/14 08:22:41;;;;;;;15.30;7.03;;;8.70;99.90;;;;;;5024947;28;20029;-69
2021/12/14 08:25:12;;;;;;;14.60;7.22;;;8.70;99.90;;;;;;5032411;28;20060;-67
2021/12/14 08:27:38;;;;;;;;;;;8.70;99.90;;;;;;5028090;28;20086;-68
2021/12/14 08:30:10;;;;;;;14.02;6.43;;;8.70;99.90;;;;;;5027616;28;19916;-68
2021/12/14 08:32:38;;;;;;;12.93;6.00;;;8.80;99.90;;;;;;5026769;28;20038;-66
2021/12/14 08:35:07;;;;;;;15.50;7.30;;;8.70;99.90;;;;;;5031301;28;20034;-69
2021/12/14 08:37:36;;;;;;;14.95;7.65;;;8.80;99.90;;;;;;5029721;28;20036;-67
2021/12/14 08:40:11;;;;;;;20.27;8.13;;;8.80;99.90;;;;;;5022047;28;20041;-68
2021/12/14 08:42:48;;;;;;;14.75;7.05;;;8.80;99.90;;;;;;5027088;28;20068;-66
2021/12/14 08:45:26;;;;;;;16.40;7.45;;;8.80;99.90;;;;;;5027346;28;20042;-65
2021/12/14 08:48:32;;;;;;;17.83;8.88;;;8.80;99.90;;;;;;5029965;28;20042;-66
2021/12/14 08:51:24;;;;;;;17.52;6.90;;;8.80;99.90;;;;;;5025242;28;20409;-69
2021/12/14 08:54:26;;;;;;;19.40;8.27;;;8.80;99.90;;;;;;5029743;28;21830;-67
2021/12/14 08:57:14;;;;;;;18.70;7.55;;;8.90;99.90;;;;;;5017229;28;20071;-67
2021/12/14 08:59:43;;;;;;;12.95;6.95;;;8.90;99.90;;;;;;5025182;28;20103;-68
2021/12/14 09:02:14;;;;;;;19.45;7.97;;;8.90;99.90;;;;;;5035448;28;20038;-67
2021/12/14 09:05:01;;;;;;;18.75;7.30;;;8.90;99.90;;;;;;5033175;28;20396;-69
2021/12/14 09:07:30;;;;;;;16.35;7.35;;;9.00;99.90;;;;;;5037063;28;20029;-68
2021/12/14 09:09:57;;;;;;;18.77;8.32;;;8.90;99.90;;;;;;5030608;28;20133;-69
2021/12/14 09:12:29;;;;;;;17.33;7.70;;;9.00;99.90;;;;;;5032886;28;20033;-69
2021/12/14 09:15:01;;;;;;;17.98;8.07;;;8.90;99.90;;;;;;5031427;28;20203;-68
2021/12/14 09:17:27;;;;;;;18.13;8.93;;;8.90;99.90;;;;;;5029089;28;20033;-68
2021/12/14 09:19:57;;;;;;;18.40;7.80;;;8.90;99.90;;;;;;5031514;28;20033;-68
2021/12/14 09:22:25;;;;;;;;;;;8.80;99.90;;;;;;5029811;28;20041;-68
2021/12/14 09:24:53;;;;;;;19.05;8.98;;;8.80;99.90;;;;;;5031948;28;19921;-68
2021/12/14 09:27:22;;;;;;;19.90;7.55;;;8.70;99.90;;;;;;5031302;28;20088;-68
2021/12/14 09:29:50;;;;;;;16.35;7.57;;;8.80;99.90;;;;;;5034951;28;20053;-65
2021/12/14 09:32:21;;;;;;;17.55;8.45;;;8.70;99.90;;;;;;5030724;28;20033;-67
2021/12/14 09:34:47;;;;;;;20.83;8.98;;;8.70;99.90;;;;;;5030290;28;20112;-68
2021/12/14 09:37:14;;;;;;;20.73;9.35;;;8.70;99.90;;;;;;5034600;28;20484;-68
2021/12/14 09:39:49;;;;;;;18.92;8.93;;;8.80;99.90;;;;;;5028704;28;20113;-68
2021/12/14 09:42:19;;;;;;;19.17;8.48;;;8.80;99.90;;;;;;5031240;28;20401;-67
2021/12/14 09:44:48;;;;;;;19.15;8.55;;;8.70;99.90;;;;;;5032729;28;20599;-68
2021/12/14 09:47:17;;;;;;;21.00;8.80;;;8.80;99.90;;;;;;5035820;28;20037;-68
2021/12/14 09:49:44;;;;;;;19.48;9.05;;;8.80;99.90;;;;;;5030312;28;20057;-69
2021/12/14 09:52:21;;;;;;;22.67;8.95;;;8.80;99.90;;;;;;5028281;28;20758;-68
2021/12/14 09:54:48;;;;;;;21.48;9.30;;;8.90;99.90;;;;;;5032683;28;20029;-69
2021/12/14 09:57:29;;;;;;;22.83;9.45;;;8.90;99.90;;;;;;5032185;28;20052;-68
2021/12/14 09:59:59;;;;;;;21.05;8.93;;;8.90;99.90;;;;;;5034133;28;20516;-67
2021/12/14 10:02:27;;;;;;;20.27;8.85;;;9.00;99.90;;;;;;5029877;28;20036;-68
2021/12/14 10:05:00;;;;;;;18.45;8.52;;;9.00;99.90;;;;;;5029665;28;20034;-71
2021/12/14 10:07:26;;;;;;;21.58;9.60;;;9.00;99.90;;;;;;5031162;28;20029;-69
2021/12/14 10:09:55;;;;;;;22.05;9.30;;;9.10;99.90;;;;;;5030857;28;20834;-67
2021/12/14 10:14:57;;;;;;;16.67;8.75;;;9.20;99.90;;;;;;5030358;28;20030;-69
2021/12/14 10:17:26;;;;;;;18.73;9.00;;;9.20;99.90;;;;;;5035707;22;20041;-65
2021/12/14 10:19:52;;;;;;;21.02;9.52;;;9.20;99.90;;;;;;5022753;28;20046;-64
2021/12/14 10:22:23;;;;;;;27.15;9.98;;;9.30;99.90;;;;;;5015955;28;20187;-65
2021/12/14 10:24:52;;;;;;;21.52;8.95;;;9.30;99.90;;;;;;5000010;28;20033;-65
2021/12/14 10:27:21;;;;;;;19.77;8.57;;;9.30;99.90;;;;;;5013636;28;20046;-64
2021/12/14 10:29:47;;;;;;;24.65;9.70;;;9.30;99.90;;;;;;4999857;28;20064;-64
2021/12/14 10:32:21;;;;;;;21.65;8.77;;;9.30;99.90;;;;;;5016280;28;20111;-65
2021/12/14 10:34:53;;;;;;;20.73;9.60;;;9.40;99.90;;;;;;5015501;28;20029;-64
2021/12/14 10:37:25;;;;;;;20.30;9.52;;;9.30;99.90;;;;;;4993985;28;20089;-65
2021/12/14 10:42:53;;;;;;;22.60;10.20;;;9.40;99.90;;;;;;5015933;28;20040;-65
2021/12/14 10:45:25;;;;;;;25.83;9.68;;;9.40;99.90;;;;;;5017770;28;20097;-65
2021/12/14 10:47:51;;;;;;;26.63;9.95;;;9.50;99.90;;;;;;5018176;28;20587;-64
2021/12/14 10:50:21;;;;;;;24.23;10.77;;;9.50;99.90;;;;;;5014477;28;20069;-65
2021/12/14 10:52:47;;;;;;;20.75;9.27;;;9.60;99.90;;;;;;5016732;28;20401;-66
2021/12/14 10:55:28;;;;;;;22.98;9.82;;;9.60;99.90;;;;;;5016359;28;20053;-64
2021/12/14 10:57:54;;;;;;;30.35;11.23;;;9.60;99.90;;;;;;5014625;28;20405;-66
2021/12/14 11:00:31;;;;;;;26.88;10.57;;;9.60;99.90;;;;;;5021539;28;20120;-64
2021/12/14 11:03:12;;;;;;;25.73;10.02;;;9.60;99.90;;;;;;5014052;28;20038;-66
2021/12/14 11:05:40;;;;;;;29.30;10.93;;;9.70;99.90;;;;;;5013320;28;20088;-65
2021/12/14 11:08:18;;;;;;;25.88;10.40;;;9.70;99.90;;;;;;5017318;28;20125;-64
2021/12/14 11:10:44;;;;;;;25.45;10.20;;;9.60;99.90;;;;;;5011629;28;20083;-68
2021/12/14 11:13:12;;;;;;;26.42;11.20;;;9.70;99.90;;;;;;5013102;28;20049;-65
2021/12/14 11:15:44;;;;;;;26.42;10.82;;;9.70;99.90;;;;;;5011975;28;20489;-65
2021/12/14 11:18:17;;;;;;;26.50;10.63;;;9.70;99.90;;;;;;4996650;28;20475;-65
2021/12/14 11:20:57;;;;;;;24.80;10.50;;;9.70;99.90;;;;;;5006796;28;20088;-65
2021/12/14 11:23:30;;;;;;;24.48;10.93;;;9.70;99.90;;;;;;5009629;28;20421;-64
2021/12/14 11:26:00;;;;;;;26.40;10.68;;;9.70;99.90;;;;;;5010756;28;20390;-64
2021/12/14 11:28:33;;;;;;;23.40;10.82;;;9.70;99.90;;;;;;5015668;28;20065;-63
2021/12/14 11:31:12;;;;;;;25.25;9.93;;;9.70;99.90;;;;;;4996344;28;20450;-66
2021/12/14 11:33:58;;;;;;;30.58;11.05;;;9.70;99.90;;;;;;4993097;28;20151;-64
2021/12/14 11:36:24;;;;;;;28.02;11.20;;;9.60;99.90;;;;;;4992818;28;20037;-65
2021/12/14 11:39:00;;;;;;;26.83;11.32;;;9.70;99.90;;;;;;5011258;28;20764;-66
2021/12/14 11:41:48;;;;;;;24.35;10.82;;;9.60;99.90;;;;;;5012999;28;20097;-65
2021/12/14 11:44:32;;;;;;;27.50;11.80;;;9.60;99.90;;;;;;5011514;28;20100;-64
2021/12/14 11:47:06;;;;;;;29.98;11.90;;;9.60;99.90;;;;;;5007693;28;20029;-65
2021/12/14 11:49:54;;;;;;;30.38;13.32;;;9.50;99.90;;;;;;5013510;28;20033;-65
2021/12/14 11:52:53;;;;;;;23.70;11.02;;;9.50;99.90;;;;;;5012471;28;20104;-64
2021/12/14 11:55:42;;;;;;;27.75;11.30;;;9.50;99.90;;;;;;5015525;28;20558;-64
2021/12/14 11:58:36;;;;;;;26.45;11.35;;;9.50;99.90;;;;;;5019565;28;20037;-65
2021/12/14 12:01:08;;;;;;;32.15;12.05;;;9.50;99.90;;;;;;5009022;28;20034;-67
2021/12/14 12:03:56;;;;;;;30.55;11.70;;;9.50;99.90;;;;;;5000138;28;20117;-65
2021/12/14 12:09:40;;;;;;;29.00;12.75;;;9.60;99.90;;;;;;5015217;28;20074;-65
2021/12/14 12:12:15;;;;;;;32.35;12.75;;;9.60;99.90;;;;;;5012732;28;20037;-65
2021/12/14 12:15:02;;;;;;;26.10;11.20;;;9.60;99.90;;;;;;5011884;28;22459;-66
2021/12/14 12:17:42;;;;;;;27.63;11.63;;;9.60;99.90;;;;;;5013912;28;20438;-66
2021/12/14 12:20:11;;;;;;;25.73;10.80;;;9.60;99.90;;;;;;5015592;28;20129;-65
2021/12/14 12:22:59;;;;;;;31.80;11.82;;;9.50;99.90;;;;;;5014993;28;20397;-66
2021/12/14 12:25:24;;;;;;;25.30;11.23;;;9.50;99.90;;;;;;5012115;28;20041;-65
2021/12/14 12:28:08;;;;;;;26.35;11.38;;;9.50;99.90;;;;;;5017886;28;20114;-65
2021/12/14 12:30:43;;;;;;;29.77;11.75;;;9.50;99.90;;;;;;5018972;28;20117;-64
2021/12/14 12:33:08;;;;;;;30.33;11.68;;;9.50;99.90;;;;;;5021734;28;20041;-64
2021/12/14 12:35:50;;;;;;;26.42;10.45;;;9.60;99.90;;;;;;5018888;28;20038;-63
2021/12/14 12:38:45;;;;;;;24.13;10.73;;;9.60;99.90;;;;;;5020274;28;20030;-66
2021/12/14 12:41:37;;;;;;;24.38;10.18;;;9.60;99.90;;;;;;5018017;28;20045;-66
2021/12/14 12:44:16;;;;;;;23.92;10.70;;;9.60;99.90;;;;;;5003341;28;20509;-64
2021/12/14 12:46:48;;;;;;;27.58;10.60;;;9.70;99.90;;;;;;5020690;28;20033;-66
2021/12/14 12:49:38;;;;;;;23.88;9.77;;;9.70;99.90;;;;;;5022324;28;20045;-64
2021/12/14 12:52:12;;;;;;;21.33;10.03;;;9.80;99.90;;;;;;5018752;28;20055;-65
2021/12/14 12:55:02;;;;;;;23.08;9.63;;;9.80;99.90;;;;;;5018758;28;20069;-66
2021/12/14 12:58:12;;;;;;;16.88;8.90;;;9.80;99.90;;;;;;5006160;28;20617;-65
2021/12/14 13:00:44;;;;;;;19.85;9.45;;;9.80;99.90;;;;;;4949820;28;20416;-64
2021/12/14 13:03:26;;;;;;;23.77;9.23;;;9.80;99.90;;;;;;4952029;28;20042;-64
2021/12/14 13:06:05;;;;;;;25.88;9.10;;;9.70;99.90;;;;;;4981589;28;20084;-64
2021/12/14 13:08:38;;;;;;;18.58;8.45;;;9.80;99.90;;;;;;5017958;28;20022;-65
2021/12/14 13:11:09;;;;;;;25.38;9.68;;;9.80;99.90;;;;;;5016269;28;20045;-66
2021/12/14 13:13:45;;;;;;;20.33;8.13;;;9.80;99.90;;;;;;5016738;28;20720;-65
2021/12/14 13:16:35;;;;;;;23.38;9.57;;;9.80;99.90;;;;;;5016648;28;20448;-65
2021/12/14 13:19:11;;;;;;;20.40;8.65;;;9.80;99.90;;;;;;5016955;28;20061;-66
2021/12/14 13:21:40;;;;;;;20.02;9.23;;;9.70;99.90;;;;;;5016740;28;20060;-65
2021/12/14 13:24:23;;;;;;;17.23;8.88;;;9.70;99.90;;;;;;5013200;28;20046;-64
2021/12/14 13:27:08;;;;;;;21.55;8.82;;;9.70;99.90;;;;;;4996140;28;20044;-65
2021/12/14 13:29:36;;;;;;;18.70;8.77;;;9.70;99.90;;;;;;5020202;28;20038;-65
2021/12/14 13:32:10;;;;;;;22.42;8.40;;;9.80;99.90;;;;;;4996578;28;20035;-64
2021/12/14 13:34:53;;;;;;;20.27;9.63;;;9.80;99.90;;;;;;5017691;28;20132;-64
2021/12/14 13:37:29;;;;;;;21.13;8.32;;;9.80;99.90;;;;;;5011722;28;20034;-64
2021/12/14 13:39:56;;;;;;;26.63;9.57;;;9.80;99.90;;;;;;5011945;28;20037;-65
2021/12/14 13:42:35;;;;;;;25.13;9.38;;;9.80;99.90;;;;;;5017469;28;20630;-65
2021/12/14 13:45:05;;;;;;;22.35;8.85;;;9.80;99.90;;;;;;5014540;28;20065;-65
2021/12/14 13:47:31;;;;;;;22.60;9.32;;;9.80;99.90;;;;;;5012708;28;20034;-65
2021/12/14 13:49:59;;;;;;;20.83;9.43;;;9.80;99.90;;;;;;5017969;28;20103;-67
2021/12/14 13:52:25;;;;;;;24.27;9.23;;;9.80;99.90;;;;;;5013667;28;20045;-65
2021/12/14 13:55:12;;;;;;;24.85;9.73;;;9.80;99.90;;;;;;5012330;28;20029;-64
2021/12/14 13:57:50;;;;;;;22.48;10.02;;;9.80;99.90;;;;;;5014988;28;20033;-66
2021/12/14 14:00:41;;;;;;;22.92;9.60;;;9.80;99.90;;;;;;5017597;28;20030;-64
2021/12/14 14:03:08;;;;;;;22.88;10.55;;;9.90;99.90;;;;;;5017456;28;20046;-65